createdAt,value
2022-10-07T00:00:01.044Z,9.58
2022-10-07T00:02:36.193Z,9.59
2022-10-07T00:05:09.922Z,9.61
2022-10-07T00:07:44.552Z,9.58
2022-10-07T00:10:17.919Z,9.55
2022-10-07T00:12:50.808Z,9.53
2022-10-07T00:15:24.325Z,9.50
2022-10-07T00:17:57.828Z,9.51
2022-10-07T00:20:30.715Z,9.56
2022-10-07T00:23:03.627Z,9.62
2022-10-07T00:25:39.787Z,9.63
2022-10-07T00:28:12.670Z,9.65
2022-10-07T00:30:45.839Z,9.66
2022-10-07T00:33:18.626Z,9.65
2022-10-07T00:35:51.419Z,9.66
2022-10-07T00:38:24.285Z,9.70
2022-10-07T00:40:59.495Z,9.68
2022-10-07T00:43:34.014Z,9.66
2022-10-07T00:46:32.506Z,9.66
2022-10-07T00:49:10.024Z,9.62
2022-10-07T00:51:43.979Z,9.56
2022-10-07T00:54:18.512Z,9.52
2022-10-07T00:56:51.974Z,9.50
2022-10-07T00:59:25.335Z,9.48
2022-10-07T01:01:58.433Z,9.44
2022-10-07T01:04:31.803Z,9.42
2022-10-07T01:07:05.283Z,9.41
2022-10-07T01:09:40.196Z,9.44
2022-10-07T01:12:36.312Z,9.46
2022-10-07T01:15:29.325Z,9.45
2022-10-07T01:18:18.909Z,9.44
2022-10-07T01:21:08.658Z,9.47
2022-10-07T01:24:15.454Z,9.50
2022-10-07T01:27:03.224Z,9.53
2022-10-07T01:29:43.452Z,9.54
2022-10-07T01:32:41.860Z,9.51
2022-10-07T01:35:18.926Z,9.51
2022-10-07T01:38:00.463Z,9.53
2022-10-07T01:40:48.573Z,9.55
2022-10-07T01:43:23.468Z,9.53
2022-10-07T01:45:57.253Z,9.51
2022-10-07T01:48:31.693Z,9.51
2022-10-07T01:51:04.786Z,9.49
2022-10-07T01:53:54.096Z,9.48
2022-10-07T01:56:41.202Z,9.47
2022-10-07T01:59:47.794Z,9.49
2022-10-07T02:02:43.665Z,9.49
2022-10-07T02:05:46.937Z,9.51
2022-10-07T02:08:42.687Z,9.54
2022-10-07T02:11:29.077Z,9.55
2022-10-07T02:14:28.777Z,9.56
2022-10-07T02:17:10.901Z,9.55
2022-10-07T02:19:53.687Z,9.55
2022-10-07T02:22:29.236Z,9.56
2022-10-07T02:25:02.535Z,9.59
2022-10-07T02:27:38.577Z,9.64
2022-10-07T02:30:15.413Z,9.66
2022-10-07T02:32:57.684Z,9.70
2022-10-07T02:35:50.512Z,9.68
2022-10-07T02:38:25.877Z,9.68
2022-10-07T02:41:38.075Z,9.64
2022-10-07T02:44:36.222Z,9.64
2022-10-07T02:47:14.656Z,9.58
2022-10-07T02:49:53.030Z,9.50
2022-10-07T02:52:27.151Z,9.41
2022-10-07T02:55:07.173Z,9.36
2022-10-07T02:57:45.283Z,9.30
2022-10-07T03:00:20.837Z,9.27
2022-10-07T03:03:05.284Z,9.24
2022-10-07T03:05:43.305Z,9.22
2022-10-07T03:08:16.141Z,9.20
2022-10-07T03:10:50.899Z,9.16
2022-10-07T03:13:25.186Z,9.14
2022-10-07T03:15:59.795Z,9.12
2022-10-07T03:18:33.580Z,9.11
2022-10-07T03:21:26.782Z,9.08
2022-10-07T03:24:01.802Z,9.05
2022-10-07T03:26:35.890Z,9.04
2022-10-07T03:29:10.618Z,9.03
2022-10-07T03:31:44.046Z,9.03
2022-10-07T03:34:17.027Z,9.01
2022-10-07T03:36:51.015Z,8.98
2022-10-07T03:39:24.841Z,8.98
2022-10-07T03:41:57.792Z,8.97
2022-10-07T03:44:30.727Z,8.94
2022-10-07T03:47:08.729Z,8.92
2022-10-07T03:49:41.852Z,8.90
2022-10-07T03:52:15.214Z,8.87
2022-10-07T03:54:48.402Z,8.88
2022-10-07T03:57:39.526Z,8.89
2022-10-07T04:00:13.923Z,8.92
2022-10-07T04:02:53.615Z,8.95
2022-10-07T04:05:26.739Z,8.96
2022-10-07T04:08:00.536Z,8.98
2022-10-07T04:10:34.898Z,9.01
2022-10-07T04:13:07.532Z,9.05
2022-10-07T04:15:40.729Z,9.07
2022-10-07T04:18:14.383Z,9.08
2022-10-07T04:20:47.575Z,9.11
2022-10-07T04:23:21.497Z,9.18
2022-10-07T04:25:55.568Z,9.26
2022-10-07T04:28:28.806Z,9.32
2022-10-07T04:31:09.011Z,9.38
2022-10-07T04:33:44.586Z,9.45
2022-10-07T04:36:19.335Z,9.52
2022-10-07T04:38:56.750Z,9.56
2022-10-07T04:41:31.902Z,9.62
2022-10-07T04:44:05.086Z,9.70
2022-10-07T04:46:41.177Z,9.77
2022-10-07T04:49:15.617Z,9.84
2022-10-07T04:51:49.551Z,9.91
2022-10-07T04:54:24.513Z,9.98
2022-10-07T04:56:59.364Z,10.05
2022-10-07T04:59:36.438Z,10.14
2022-10-07T05:02:09.545Z,10.24
2022-10-07T05:04:44.587Z,10.32
2022-10-07T05:07:18.639Z,10.39
2022-10-07T05:09:51.367Z,10.43
2022-10-07T05:12:25.992Z,10.46
2022-10-07T05:15:01.106Z,10.49
2022-10-07T05:17:36.654Z,10.54
2022-10-07T05:20:12.594Z,10.61
2022-10-07T05:22:47.035Z,10.66
2022-10-07T05:25:20.383Z,10.72
2022-10-07T05:27:57.760Z,10.78
2022-10-07T05:30:31.463Z,10.82
2022-10-07T05:33:04.933Z,10.87
2022-10-07T05:35:38.174Z,10.94
2022-10-07T05:38:12.321Z,11.02
2022-10-07T05:40:45.828Z,11.07
2022-10-07T05:43:20.850Z,11.11
2022-10-07T05:46:06.187Z,11.17
2022-10-07T05:48:41.158Z,11.23
2022-10-07T05:51:16.778Z,11.32
2022-10-07T05:53:50.615Z,11.40
2022-10-07T05:56:23.870Z,11.51
2022-10-07T05:59:00.506Z,11.58
2022-10-07T06:01:34.196Z,11.67
2022-10-07T06:04:09.271Z,11.74
2022-10-07T06:06:44.020Z,11.81
2022-10-07T06:09:35.605Z,11.85
2022-10-07T06:12:25.471Z,11.92
2022-10-07T06:14:59.689Z,11.99
2022-10-07T06:17:33.247Z,12.02
2022-10-07T06:20:07.924Z,12.07
2022-10-07T06:22:43.897Z,12.13
2022-10-07T06:25:17.703Z,12.22
2022-10-07T06:27:54.360Z,12.29
2022-10-07T06:30:28.174Z,12.37
2022-10-07T06:33:03.050Z,12.44
2022-10-07T06:35:36.594Z,12.49
2022-10-07T06:38:10.098Z,12.55
2022-10-07T06:40:43.538Z,12.62
2022-10-07T06:43:16.757Z,12.66
2022-10-07T06:45:51.494Z,12.70
2022-10-07T06:48:24.966Z,12.74
2022-10-07T06:51:03.504Z,12.78
2022-10-07T06:53:36.863Z,12.82
2022-10-07T06:56:11.815Z,12.88
2022-10-07T06:58:46.107Z,12.91
2022-10-07T07:01:20.875Z,12.91
2022-10-07T07:03:54.422Z,12.87
2022-10-07T07:06:27.927Z,12.84
2022-10-07T07:09:02.604Z,12.84
2022-10-07T07:11:41.018Z,12.87
2022-10-07T07:14:15.849Z,12.90
2022-10-07T07:16:50.440Z,12.90
2022-10-07T07:19:23.407Z,12.91
2022-10-07T07:21:56.802Z,12.94
2022-10-07T07:24:30.285Z,12.97
2022-10-07T07:27:04.709Z,13.02
2022-10-07T07:29:37.833Z,13.09
2022-10-07T07:32:11.352Z,13.19
2022-10-07T07:34:46.116Z,13.28
2022-10-07T07:37:21.409Z,13.36
2022-10-07T07:39:55.958Z,13.48
2022-10-07T07:42:28.921Z,13.57
2022-10-07T07:45:02.577Z,13.67
2022-10-07T07:47:36.071Z,13.75
2022-10-07T07:50:10.124Z,13.84
2022-10-07T07:52:43.132Z,13.96
2022-10-07T07:55:17.724Z,14.04
2022-10-07T07:57:51.453Z,14.10
2022-10-07T08:00:24.315Z,14.14
2022-10-07T08:03:03.264Z,14.18
2022-10-07T08:05:37.360Z,14.23
2022-10-07T08:08:11.939Z,14.30
2022-10-07T08:10:48.418Z,14.37
2022-10-07T08:13:20.323Z,14.46
2022-10-07T08:15:57.951Z,14.56
2022-10-07T08:18:31.008Z,14.64
2022-10-07T08:21:07.818Z,14.69
2022-10-07T08:23:42.603Z,14.77
2022-10-07T08:26:16.073Z,14.84
2022-10-07T08:28:50.030Z,14.90
2022-10-07T08:31:23.627Z,14.99
2022-10-07T08:33:59.869Z,15.11
2022-10-07T08:36:35.207Z,15.27
2022-10-07T08:39:08.489Z,15.37
2022-10-07T08:41:58.311Z,15.43
2022-10-07T08:44:36.327Z,15.50
2022-10-07T08:47:35.372Z,15.59
2022-10-07T08:50:25.545Z,15.67
2022-10-07T08:53:08.966Z,15.74
2022-10-07T08:55:55.158Z,15.82
2022-10-07T08:59:05.707Z,15.87
2022-10-07T09:02:04.123Z,15.94
2022-10-07T09:04:56.910Z,16.02
2022-10-07T09:07:47.392Z,16.07
2022-10-07T09:10:37.627Z,16.15
2022-10-07T09:13:21.250Z,16.21
2022-10-07T09:16:16.196Z,16.25
2022-10-07T09:18:56.552Z,16.32
2022-10-07T09:21:41.763Z,16.38
2022-10-07T09:24:26.695Z,16.44
2022-10-07T09:27:02.547Z,16.49
2022-10-07T09:29:36.710Z,16.59
2022-10-07T09:32:14.903Z,16.67
2022-10-07T09:34:48.095Z,16.75
2022-10-07T09:37:27.898Z,16.82
2022-10-07T09:40:24.038Z,16.90
2022-10-07T09:42:57.281Z,16.95
2022-10-07T09:45:35.290Z,17.05
2022-10-07T09:48:13.755Z,17.15
2022-10-07T09:50:48.302Z,17.24
2022-10-07T09:53:29.957Z,17.32
2022-10-07T09:56:03.013Z,17.40
2022-10-07T09:58:36.338Z,17.43
2022-10-07T10:01:12.623Z,17.44
2022-10-07T10:03:45.630Z,17.47
2022-10-07T10:06:20.551Z,17.53
2022-10-07T10:15:08.979Z,17.82
2022-10-07T10:17:42.719Z,17.84
2022-10-07T10:20:38.893Z,17.85
2022-10-07T10:23:37.296Z,17.84
2022-10-07T10:26:49.923Z,17.93
2022-10-07T10:30:06.092Z,18.05
2022-10-07T10:32:53.031Z,18.19
2022-10-07T10:35:32.662Z,18.26
2022-10-07T10:38:38.874Z,18.27
2022-10-07T10:41:20.122Z,18.25
2022-10-07T10:44:12.306Z,18.21
2022-10-07T10:47:04.847Z,18.20
2022-10-07T10:50:03.139Z,18.19
2022-10-07T10:52:45.464Z,18.20
2022-10-07T10:55:26.161Z,18.20
2022-10-07T10:58:24.297Z,18.20
2022-10-07T11:01:36.945Z,18.20
2022-10-07T11:04:22.382Z,18.24
2022-10-07T11:07:05.975Z,18.26
2022-10-07T11:09:56.876Z,18.26
2022-10-07T11:12:43.374Z,18.31
2022-10-07T11:15:38.595Z,18.34
2022-10-07T11:18:22.142Z,18.33
2022-10-07T11:20:56.849Z,18.38
2022-10-07T11:23:43.112Z,18.42
2022-10-07T11:26:24.314Z,18.46
2022-10-07T11:28:58.626Z,18.42
2022-10-07T11:31:39.983Z,18.34
2022-10-07T11:34:40.805Z,18.27
2022-10-07T11:37:31.107Z,18.23
2022-10-07T11:40:09.283Z,18.23
2022-10-07T11:42:45.620Z,18.24
2022-10-07T11:45:28.490Z,18.27
2022-10-07T11:48:07.448Z,18.32
2022-10-07T12:03:40.819Z,18.42
2022-10-07T12:06:14.325Z,18.43
2022-10-07T12:08:47.599Z,18.44
2022-10-07T12:11:25.360Z,18.43
2022-10-07T12:14:01.350Z,18.46
2022-10-07T12:16:38.981Z,18.46
2022-10-07T12:19:23.034Z,18.49
2022-10-07T12:28:31.491Z,18.53
2022-10-07T12:31:22.518Z,18.55
2022-10-07T12:34:10.709Z,18.59
2022-10-07T12:36:44.444Z,18.61
2022-10-07T12:39:30.429Z,18.60
2022-10-07T12:42:05.396Z,18.60
2022-10-07T12:44:45.853Z,18.62
2022-10-07T12:47:29.913Z,18.64
2022-10-07T12:50:05.062Z,18.64
2022-10-07T12:52:58.990Z,18.60
2022-10-07T12:55:45.341Z,18.60
2022-10-07T12:58:43.469Z,18.57
2022-10-07T13:01:32.890Z,18.54
2022-10-07T13:04:16.859Z,18.50
2022-10-07T13:07:46.662Z,18.47
2022-10-07T13:11:02.039Z,18.44
2022-10-07T13:13:45.704Z,18.42
2022-10-07T13:16:27.271Z,18.37
2022-10-07T13:19:29.210Z,18.34
2022-10-07T13:22:17.798Z,18.31
2022-10-07T13:24:54.402Z,18.26
2022-10-07T13:27:35.684Z,18.22
2022-10-07T13:30:11.248Z,18.21
2022-10-07T13:32:45.896Z,18.21
2022-10-07T13:35:36.260Z,18.19
2022-10-07T13:38:06.450Z,18.18
2022-10-07T13:40:40.003Z,18.12
2022-10-07T13:43:15.010Z,18.11
2022-10-07T13:45:48.607Z,18.10
2022-10-07T13:48:25.232Z,18.07
2022-10-07T13:50:59.961Z,18.05
2022-10-07T13:53:36.509Z,18.00
2022-10-07T13:56:28.518Z,17.96
2022-10-07T13:59:01.722Z,17.90
2022-10-07T14:01:38.474Z,17.84
2022-10-07T14:04:28.678Z,17.78
2022-10-07T14:07:19.589Z,17.70
2022-10-07T14:10:05.078Z,17.66
2022-10-07T14:12:44.559Z,17.61
2022-10-07T14:15:27.575Z,17.54
2022-10-07T14:18:11.522Z,17.52
2022-10-07T14:20:53.190Z,17.46
2022-10-07T14:23:38.077Z,17.42
2022-10-07T14:26:14.508Z,17.36
2022-10-07T14:28:47.725Z,17.30
2022-10-07T14:31:40.130Z,17.26
2022-10-07T14:34:38.049Z,17.21
2022-10-07T14:37:15.137Z,17.14
2022-10-07T14:39:50.883Z,17.07
2022-10-07T14:42:30.499Z,17.02
2022-10-07T14:45:08.693Z,16.98
2022-10-07T14:47:45.098Z,16.93
2022-10-07T14:50:20.222Z,16.89
2022-10-07T14:52:54.037Z,16.85
2022-10-07T14:55:29.761Z,16.82
2022-10-07T14:58:02.656Z,16.78
2022-10-07T15:00:39.455Z,16.74
2022-10-07T15:03:10.176Z,16.71
2022-10-07T15:05:43.036Z,16.70
2022-10-07T15:08:16.786Z,16.64
2022-10-07T15:10:50.547Z,16.64
2022-10-07T15:13:23.571Z,16.63
2022-10-07T15:15:56.597Z,16.61
2022-10-07T15:18:29.462Z,16.58
2022-10-07T15:21:02.431Z,16.55
2022-10-07T15:23:35.597Z,16.51
2022-10-07T15:26:10.043Z,16.45
2022-10-07T15:28:42.962Z,16.40
2022-10-07T15:31:16.524Z,16.38
2022-10-07T15:33:49.889Z,16.34
2022-10-07T15:36:23.195Z,16.30
2022-10-07T15:38:56.694Z,16.26
2022-10-07T15:41:45.935Z,16.21
2022-10-07T15:44:22.435Z,16.16
2022-10-07T15:46:56.364Z,16.13
2022-10-07T15:49:30.563Z,16.12
2022-10-07T15:52:04.177Z,16.09
2022-10-07T15:54:37.748Z,16.06
2022-10-07T15:57:10.746Z,16.04
2022-10-07T15:59:45.037Z,16.01
2022-10-07T16:02:21.841Z,15.97
2022-10-07T16:04:54.540Z,15.94
2022-10-07T16:07:29.092Z,15.90
2022-10-07T16:10:01.855Z,15.88
2022-10-07T16:12:35.271Z,15.87
2022-10-07T16:15:09.626Z,15.83
2022-10-07T16:17:43.420Z,15.82
2022-10-07T16:20:18.415Z,15.77
2022-10-07T16:22:52.694Z,15.72
2022-10-07T16:25:25.630Z,15.67
2022-10-07T16:28:16.742Z,15.63
2022-10-07T16:30:51.563Z,15.60
2022-10-07T16:33:27.358Z,15.55
2022-10-07T16:36:00.213Z,15.51
2022-10-07T16:38:33.994Z,15.47
2022-10-07T16:41:07.334Z,15.41
2022-10-07T16:43:40.267Z,15.37
2022-10-07T16:46:19.645Z,15.35
2022-10-07T16:48:53.073Z,15.33
2022-10-07T16:51:31.352Z,15.30
2022-10-07T16:54:07.448Z,15.28
2022-10-07T16:56:42.105Z,15.24
2022-10-07T16:59:22.278Z,15.19
2022-10-07T17:01:57.069Z,15.17
2022-10-07T17:04:31.604Z,15.15
2022-10-07T17:07:06.075Z,15.14
2022-10-07T17:09:39.044Z,15.11
2022-10-07T17:12:12.062Z,15.08
2022-10-07T17:14:45.996Z,15.03
2022-10-07T17:17:20.419Z,14.99
2022-10-07T17:19:54.891Z,14.96
2022-10-07T17:22:28.453Z,14.95
2022-10-07T17:25:03.040Z,14.93
2022-10-07T17:27:36.016Z,14.91
2022-10-07T17:30:10.603Z,14.89
2022-10-07T17:32:43.738Z,14.88
2022-10-07T17:35:18.028Z,14.88
2022-10-07T17:37:51.256Z,14.88
2022-10-07T17:40:24.112Z,14.87
2022-10-07T17:42:57.281Z,14.87
2022-10-07T17:45:32.962Z,14.86
2022-10-07T17:48:06.789Z,14.83
2022-10-07T17:50:39.876Z,14.82
2022-10-07T17:53:13.037Z,14.80
2022-10-07T17:55:53.575Z,14.81
2022-10-07T17:58:27.005Z,14.81
2022-10-07T18:01:02.417Z,14.81
2022-10-07T18:03:37.342Z,14.79
2022-10-07T18:06:12.171Z,14.78
2022-10-07T18:08:48.401Z,14.78
2022-10-07T18:11:21.293Z,14.78
2022-10-07T18:14:11.606Z,14.79
2022-10-07T18:16:44.506Z,14.79
2022-10-07T18:19:17.204Z,14.77
2022-10-07T18:21:50.843Z,14.75
2022-10-07T18:24:28.378Z,14.72
2022-10-07T18:27:02.611Z,14.69
2022-10-07T18:29:38.966Z,14.69
2022-10-07T18:32:11.942Z,14.67
2022-10-07T18:34:44.596Z,14.67
2022-10-07T18:37:17.481Z,14.65
2022-10-07T18:39:51.089Z,14.62
2022-10-07T18:42:24.144Z,14.60
2022-10-07T18:44:57.066Z,14.57
2022-10-07T18:47:29.998Z,14.56
2022-10-07T18:50:03.883Z,14.51
2022-10-07T18:52:36.886Z,14.47
2022-10-07T18:55:11.085Z,14.44
2022-10-07T18:57:44.230Z,14.40
2022-10-07T19:00:17.803Z,14.39
2022-10-07T19:02:52.169Z,14.37
2022-10-07T19:05:24.066Z,14.36
2022-10-07T19:07:57.483Z,14.33
2022-10-07T19:10:30.308Z,14.27
2022-10-07T19:13:21.111Z,14.27
2022-10-07T19:15:54.978Z,14.23
2022-10-07T19:18:28.164Z,14.20
2022-10-07T19:21:02.202Z,14.17
2022-10-07T19:23:34.424Z,14.16
2022-10-07T19:26:07.409Z,14.13
2022-10-07T19:28:41.712Z,14.10
2022-10-07T19:31:27.641Z,14.09
2022-10-07T19:34:10.261Z,14.07
2022-10-07T19:36:46.707Z,14.04
2022-10-07T19:39:22.327Z,13.99
2022-10-07T19:41:56.997Z,13.93
2022-10-07T19:44:30.611Z,13.90
2022-10-07T19:47:04.372Z,13.88
2022-10-07T19:49:37.725Z,13.86
2022-10-07T19:52:11.197Z,13.83
2022-10-07T19:54:46.112Z,13.78
2022-10-07T19:57:19.275Z,13.70
2022-10-07T19:59:52.346Z,13.62
2022-10-07T20:02:25.253Z,13.54
2022-10-07T20:04:58.347Z,13.50
2022-10-07T20:07:31.689Z,13.48
2022-10-07T20:10:05.045Z,13.46
2022-10-07T20:12:39.573Z,13.44
2022-10-07T20:15:14.298Z,13.42
2022-10-07T20:17:49.315Z,13.36
2022-10-07T20:20:22.846Z,13.32
2022-10-07T20:22:56.422Z,13.28
2022-10-07T20:25:30.129Z,13.25
2022-10-07T20:28:03.126Z,13.22
2022-10-07T20:30:37.253Z,13.21
2022-10-07T20:33:10.390Z,13.19
2022-10-07T20:35:43.416Z,13.16
2022-10-07T20:38:16.142Z,13.12
2022-10-07T20:41:11.371Z,13.11
2022-10-07T20:43:44.181Z,13.09
2022-10-07T20:46:17.288Z,13.09
2022-10-07T20:48:52.203Z,13.08
2022-10-07T20:51:25.311Z,13.06
2022-10-07T20:53:58.224Z,13.03
2022-10-07T20:56:32.725Z,13.01
2022-10-07T20:59:06.695Z,12.98
2022-10-07T21:01:41.137Z,12.94
2022-10-07T21:04:16.681Z,12.92
2022-10-07T21:06:53.412Z,12.90
2022-10-07T21:09:28.598Z,12.86
2022-10-07T21:12:01.697Z,12.80
2022-10-07T21:14:35.489Z,12.75
2022-10-07T21:17:09.710Z,12.69
2022-10-07T21:19:42.702Z,12.66
2022-10-07T21:22:15.549Z,12.65
2022-10-07T21:24:48.551Z,12.64
2022-10-07T21:27:21.527Z,12.65
2022-10-07T21:29:54.378Z,12.65
2022-10-07T21:32:28.477Z,12.66
2022-10-07T21:35:03.515Z,12.63
2022-10-07T21:37:36.532Z,12.61
2022-10-07T21:40:10.564Z,12.60
2022-10-07T21:42:42.973Z,12.59
2022-10-07T21:45:16.114Z,12.58
2022-10-07T21:47:49.885Z,12.57
2022-10-07T21:50:22.537Z,12.57
2022-10-07T21:52:55.239Z,12.56
2022-10-07T21:55:28.083Z,12.56
2022-10-07T21:58:01.989Z,12.55
2022-10-07T22:00:36.530Z,12.56
2022-10-07T22:03:12.747Z,12.53
2022-10-07T22:05:45.601Z,12.54
2022-10-07T22:08:38.175Z,12.53
2022-10-07T22:11:19.362Z,12.52
2022-10-07T22:13:55.433Z,12.51
2022-10-07T22:16:29.307Z,12.48
2022-10-07T22:19:01.680Z,12.46
2022-10-07T22:21:38.037Z,12.46
2022-10-07T22:24:11.240Z,12.44
2022-10-07T22:26:47.544Z,12.44
2022-10-07T22:29:21.956Z,12.43
2022-10-07T22:31:55.432Z,12.45
2022-10-07T22:34:45.815Z,12.46
2022-10-07T22:37:18.899Z,12.45
2022-10-07T22:39:51.772Z,12.45
2022-10-07T22:42:25.208Z,12.44
2022-10-07T22:44:57.726Z,12.42
2022-10-07T22:47:30.516Z,12.40
2022-10-07T22:50:08.400Z,12.41
2022-10-07T22:52:41.924Z,12.40
2022-10-07T22:55:17.082Z,12.41
2022-10-07T22:57:51.413Z,12.40
2022-10-07T23:00:23.679Z,12.38
2022-10-07T23:02:56.535Z,12.38
2022-10-07T23:05:29.343Z,12.35
2022-10-07T23:08:02.033Z,12.33
2022-10-07T23:10:34.928Z,12.33
2022-10-07T23:13:07.876Z,12.33
2022-10-07T23:15:41.212Z,12.34
2022-10-07T23:18:14.523Z,12.33
2022-10-07T23:20:47.331Z,12.33
2022-10-07T23:23:20.134Z,12.29
2022-10-07T23:25:53.438Z,12.28
2022-10-07T23:28:26.568Z,12.27
2022-10-07T23:31:01.158Z,12.25
2022-10-07T23:33:35.963Z,12.25
2022-10-07T23:36:11.674Z,12.22
2022-10-07T23:38:45.583Z,12.20
2022-10-07T23:41:22.800Z,12.17
2022-10-07T23:43:57.843Z,12.15
2022-10-07T23:46:34.250Z,12.11
2022-10-07T23:49:07.427Z,12.10
2022-10-07T23:51:40.176Z,12.10
2022-10-07T23:54:13.135Z,12.09
2022-10-07T23:56:47.010Z,12.05
2022-10-07T23:59:19.794Z,12.01
